Time;durP1;ratioP1;P1;durP2;ratioP2;P2;SDS_P1;SDS_P2;PMS_P1;PMS_P2;Temp;Humidity;BMP_temperature;BMP_pressure;BME280_temperature;BME280_humidity;BME280_pressure;Samples;Min_cycle;Max_cycle;Signal;HPM_P1;HPM_P2
2023/05/21 00:01:52;;;;;;;;;;;18.40;54.10;;;;;;5076758;28;19927;-71
2023/05/21 00:04:18;;;;;;;;;;;18.40;54.10;;;;;;5076050;28;19934;-71
2023/05/21 00:06:43;;;;;;;;;;;18.40;54.10;;;;;;5075638;28;19920;-71
2023/05/21 00:09:11;;;;;;;;;;;18.50;54.20;;;;;;5094697;28;19920;-71
2023/05/21 00:11:37;;;;;;;;;;;18.40;54.20;;;;;;5076859;28;19924;-71
2023/05/21 00:14:02;;;;;;;;;;;18.40;54.20;;;;;;5076861;28;20294;-71
2023/05/21 00:16:27;;;;;;;;;;;18.40;54.20;;;;;;5076468;28;19920;-69
2023/05/21 00:18:54;;;;;;;;;;;18.40;54.20;;;;;;5076536;28;19920;-71
2023/05/21 00:21:21;;;;;;;;;;;18.40;54.20;;;;;;5094367;28;19957;-71
2023/05/21 00:23:49;;;;;;;;;;;18.40;54.20;;;;;;5076276;28;19920;-71
2023/05/21 00:26:14;;;;;;;;;;;18.40;54.20;;;;;;5076519;28;19956;-72
2023/05/21 00:28:40;;;;;;;;;;;18.40;54.20;;;;;;5076283;28;20016;-71
2023/05/21 00:31:05;;;;;;;;;;;18.40;54.30;;;;;;5094284;28;19947;-71
2023/05/21 00:33:31;;;;;;;;;;;18.40;54.30;;;;;;5094537;28;20017;-71
2023/05/21 00:35:56;;;;;;;;;;;18.40;54.30;;;;;;5076276;28;19920;-71
2023/05/21 00:38:22;;;;;;;;;;;18.40;54.30;;;;;;5076105;28;19920;-71
2023/05/21 00:40:48;;;;;;;;;;;18.40;54.30;;;;;;5093952;28;19979;-71
2023/05/21 00:43:13;;;;;;;;;;;18.40;54.30;;;;;;5076212;28;19926;-71
2023/05/21 00:45:40;;;;;;;;;;;18.40;54.30;;;;;;5075858;28;20025;-71
2023/05/21 00:48:05;;;;;;;;;;;18.40;54.40;;;;;;5076168;28;19946;-71
2023/05/21 00:50:31;;;;;;;;;;;18.40;54.40;;;;;;5076302;28;19924;-71
2023/05/21 00:52:58;;;;;;;;;;;18.40;54.40;;;;;;5076011;28;19926;-71
2023/05/21 00:55:24;;;;;;;;;;;18.40;54.40;;;;;;5075960;28;19920;-71
2023/05/21 00:57:49;;;;;;;;;;;18.40;54.40;;;;;;5093745;28;19920;-71
2023/05/21 01:00:15;;;;;;;;;;;18.40;54.40;;;;;;5075528;28;19928;-71
2023/05/21 01:02:40;;;;;;;;;;;18.40;54.40;;;;;;5075897;28;19962;-71
2023/05/21 01:05:06;;;;;;;;;;;18.40;54.40;;;;;;5075654;28;19989;-71
2023/05/21 01:07:34;;;;;;;;;;;18.40;54.40;;;;;;5075349;28;19986;-71
2023/05/21 01:10:01;;;;;;;;;;;18.40;54.50;;;;;;5093115;28;19928;-71
2023/05/21 01:12:27;;;;;;;;;;;18.40;54.50;;;;;;5074998;28;19920;-71
2023/05/21 01:14:53;;;;;;;;;;;18.40;54.50;;;;;;5075324;28;19920;-71
2023/05/21 01:17:22;;;;;;;;;;;18.40;54.50;;;;;;5075519;28;19942;-71
2023/05/21 01:19:49;;;;;;;;;;;18.40;54.50;;;;;;5093162;28;20383;-71
2023/05/21 01:22:17;;;;;;;;;;;18.30;54.50;;;;;;5075087;28;20006;-71
2023/05/21 01:24:46;;;;;;;;;;;18.40;54.60;;;;;;5075327;28;19963;-71
2023/05/21 01:27:11;;;;;;;;;;;18.40;54.50;;;;;;5075297;28;19989;-71
2023/05/21 01:29:37;;;;;;;;;;;18.40;54.60;;;;;;5075033;28;20403;-71
2023/05/21 01:32:08;;;;;;;;;;;18.30;54.50;;;;;;5075193;28;19963;-71
2023/05/21 01:34:38;;;;;;;;;;;18.30;54.50;;;;;;5074877;28;20397;-71
2023/05/21 01:37:21;;;;;;;;;;;18.30;54.50;;;;;;5074971;28;19973;-71
2023/05/21 01:39:51;;;;;;;;;;;18.30;54.50;;;;;;5074975;28;20333;-71
2023/05/21 01:42:17;;;;;;;;;;;18.30;54.50;;;;;;5074962;28;19928;-71
2023/05/21 01:44:44;;;;;;;;;;;18.30;54.50;;;;;;5092993;28;19920;-71
2023/05/21 01:47:10;;;;;;;;;;;18.30;54.50;;;;;;5075215;28;20329;-71
2023/05/21 01:49:36;;;;;;;;;;;18.30;54.60;;;;;;5074332;28;19924;-71
2023/05/21 01:52:02;;;;;;;;;;;18.30;54.60;;;;;;5074917;28;19943;-71
2023/05/21 01:54:27;;;;;;;;;;;18.30;54.60;;;;;;5074650;28;19972;-71
2023/05/21 01:56:52;;;;;;;;;;;18.30;54.60;;;;;;5092928;28;19928;-71
2023/05/21 01:59:19;;;;;;;;;;;18.30;54.60;;;;;;5073776;28;20343;-71
2023/05/21 02:01:44;;;;;;;;;;;18.30;54.60;;;;;;5074775;28;20329;-70
2023/05/21 02:04:10;;;;;;;;;;;18.30;54.60;;;;;;5092606;28;19920;-71
2023/05/21 02:06:38;;;;;;;;;;;18.30;54.60;;;;;;5074798;28;19924;-71
2023/05/21 02:09:03;;;;;;;;;;;18.20;54.60;;;;;;5074690;28;19931;-71
2023/05/21 02:11:29;;;;;;;;;;;18.30;54.60;;;;;;5074486;28;19920;-71
2023/05/21 02:13:56;;;;;;;;;;;18.30;54.70;;;;;;5074340;28;19981;-71
2023/05/21 02:16:21;;;;;;;;;;;18.30;54.70;;;;;;5092612;28;19920;-71
2023/05/21 02:18:50;;;;;;;;;;;18.30;54.70;;;;;;5074087;28;19942;-71
2023/05/21 02:21:16;;;;;;;;;;;18.30;54.70;;;;;;5074251;28;20430;-71
2023/05/21 02:23:41;;;;;;;;;;;18.30;54.70;;;;;;5074488;28;19927;-71
2023/05/21 02:26:07;;;;;;;;;;;18.30;54.70;;;;;;5092624;28;20375;-71
2023/05/21 02:28:32;;;;;;;;;;;18.30;54.70;;;;;;5092550;28;19920;-71
2023/05/21 02:30:58;;;;;;;;;;;18.30;54.70;;;;;;5074439;28;19920;-71
2023/05/21 02:33:24;;;;;;;;;;;18.30;54.80;;;;;;5074593;28;19973;-71
2023/05/21 02:35:50;;;;;;;;;;;18.30;54.80;;;;;;5074168;28;19934;-72
2023/05/21 02:38:18;;;;;;;;;;;18.30;54.80;;;;;;5092315;28;19924;-71
2023/05/21 02:40:44;;;;;;;;;;;18.30;55.50;;;;;;5074206;28;19932;-71
2023/05/21 02:43:10;;;;;;;;;;;18.30;54.80;;;;;;5074403;28;20272;-71
2023/05/21 02:45:35;;;;;;;;;;;18.30;54.80;;;;;;5074002;28;19969;-71
2023/05/21 02:48:01;;;;;;;;;;;18.30;54.80;;;;;;5074423;28;19927;-71
2023/05/21 02:50:26;;;;;;;;;;;18.30;54.80;;;;;;5074002;28;19926;-71
2023/05/21 02:52:52;;;;;;;;;;;18.30;54.80;;;;;;5074363;28;19924;-71
2023/05/21 02:55:17;;;;;;;;;;;18.30;54.80;;;;;;5074193;28;19920;-71
2023/05/21 02:57:43;;;;;;;;;;;18.30;54.90;;;;;;5092263;28;20379;-71
2023/05/21 03:00:09;;;;;;;;;;;18.30;54.80;;;;;;5074221;28;19931;-71
2023/05/21 03:02:34;;;;;;;;;;;18.30;54.80;;;;;;5075765;28;19945;-71
2023/05/21 03:05:00;;;;;;;;;;;18.30;54.80;;;;;;5077805;28;19920;-71
2023/05/21 03:07:26;;;;;;;;;;;18.30;54.80;;;;;;5077962;28;19924;-71
2023/05/21 03:09:51;;;;;;;;;;;18.30;54.90;;;;;;5077715;28;20167;-71
2023/05/21 03:12:17;;;;;;;;;;;18.30;54.90;;;;;;5095963;28;19920;-71
2023/05/21 03:14:43;;;;;;;;;;;18.30;54.90;;;;;;5077938;28;20285;-70
2023/05/21 03:17:12;;;;;;;;;;;18.30;54.90;;;;;;5077850;28;19926;-71
2023/05/21 03:19:39;;;;;;;;;;;18.30;54.90;;;;;;5073793;28;19924;-71
2023/05/21 03:22:05;;;;;;;;;;;18.20;54.80;;;;;;5074043;28;19926;-71
2023/05/21 03:24:31;;;;;;;;;;;18.20;54.80;;;;;;5073750;28;19921;-71
2023/05/21 03:26:58;;;;;;;;;;;18.30;54.90;;;;;;5074039;28;19921;-69
2023/05/21 03:29:23;;;;;;;;;;;18.30;54.90;;;;;;5073976;28;19920;-71
2023/05/21 03:31:51;;;;;;;;;;;18.20;54.80;;;;;;5074192;28;19930;-71
2023/05/21 03:34:18;;;;;;;;;;;18.20;54.90;;;;;;5073981;28;19920;-71
2023/05/21 03:36:45;;;;;;;;;;;18.20;54.90;;;;;;5073322;28;20070;-71
2023/05/21 03:39:10;;;;;;;;;;;18.30;54.90;;;;;;5074887;28;20019;-71
2023/05/21 03:41:36;;;;;;;;;;;18.30;54.90;;;;;;5073918;28;20019;-71
2023/05/21 03:44:01;;;;;;;;;;;18.20;54.90;;;;;;5073990;28;19925;-71
2023/05/21 03:46:27;;;;;;;;;;;18.20;54.90;;;;;;5073833;28;20132;-71
2023/05/21 03:48:52;;;;;;;;;;;18.20;54.90;;;;;;5073915;28;19921;-71
2023/05/21 03:51:19;;;;;;;;;;;18.20;54.90;;;;;;5074224;28;20043;-71
2023/05/21 03:53:45;;;;;;;;;;;18.20;54.90;;;;;;5073735;28;20422;-71
2023/05/21 03:56:10;;;;;;;;;;;18.20;54.90;;;;;;5073536;28;19925;-71
2023/05/21 03:58:36;;;;;;;;;;;18.20;54.90;;;;;;5073677;28;19932;-71
2023/05/21 04:01:03;;;;;;;;;;;18.20;54.90;;;;;;5073516;28;19928;-71
2023/05/21 04:03:29;;;;;;;;;;;18.20;54.90;;;;;;5073356;28;19920;-71
2023/05/21 04:05:55;;;;;;;;;;;18.20;54.90;;;;;;5073711;28;19927;-71
2023/05/21 04:08:20;;;;;;;;;;;18.20;54.90;;;;;;5073238;28;19920;-71
2023/05/21 04:10:46;;;;;;;;;;;18.20;54.90;;;;;;5073758;28;20023;-71
2023/05/21 04:13:11;;;;;;;;;;;18.20;54.90;;;;;;5072689;28;19924;-71
2023/05/21 04:15:37;;;;;;;;;;;18.20;55.00;;;;;;5073128;28;19946;-71
2023/05/21 04:18:03;;;;;;;;;;;18.20;54.90;;;;;;5073544;28;19920;-71
2023/05/21 04:20:28;;;;;;;;;;;18.20;55.00;;;;;;5072823;28;19932;-71
2023/05/21 04:22:54;;;;;;;;;;;18.20;55.00;;;;;;5074297;28;20011;-71
2023/05/21 04:25:21;;;;;;;;;;;18.20;55.00;;;;;;5072861;28;19920;-72
2023/05/21 04:27:48;;;;;;;;;;;18.20;55.00;;;;;;5073275;28;19928;-71
2023/05/21 04:30:18;;;;;;;;;;;18.20;55.00;;;;;;5073157;28;19920;-71
2023/05/21 04:32:44;;;;;;;;;;;18.20;55.00;;;;;;5074231;28;19945;-72
2023/05/21 04:35:10;;;;;;;;;;;18.20;55.70;;;;;;5073015;28;20011;-71
2023/05/21 04:37:40;;;;;;;;;;;18.20;55.00;;;;;;5074094;28;20299;-71
2023/05/21 04:40:08;;;;;;;;;;;18.20;55.00;;;;;;5072708;28;19929;-71
2023/05/21 04:42:33;;;;;;;;;;;18.20;55.10;;;;;;5074177;28;19924;-71
2023/05/21 04:44:59;;;;;;;;;;;18.20;55.00;;;;;;5074015;28;19929;-71
2023/05/21 04:47:25;;;;;;;;;;;18.10;55.00;;;;;;5073983;28;19943;-71
2023/05/21 04:49:50;;;;;;;;;;;18.20;55.00;;;;;;5072696;28;19971;-71
2023/05/21 04:52:16;;;;;;;;;;;18.20;55.10;;;;;;5072712;28;20384;-71
2023/05/21 04:54:41;;;;;;;;;;;18.10;55.00;;;;;;5072409;28;19993;-71
2023/05/21 04:57:07;;;;;;;;;;;18.20;55.10;;;;;;5072587;28;20253;-71
2023/05/21 04:59:33;;;;;;;;;;;18.20;55.10;;;;;;5073465;28;19926;-71
2023/05/21 05:01:59;;;;;;;;;;;18.10;55.00;;;;;;5072555;28;19921;-70
2023/05/21 05:04:24;;;;;;;;;;;18.10;55.00;;;;;;5072344;28;19920;-71
2023/05/21 05:06:51;;;;;;;;;;;18.10;55.10;;;;;;5072621;28;19924;-71
2023/05/21 05:09:17;;;;;;;;;;;18.10;55.00;;;;;;5072348;28;19999;-71
2023/05/21 05:11:42;;;;;;;;;;;18.10;55.00;;;;;;5071921;28;20011;-71
2023/05/21 05:14:08;;;;;;;;;;;18.20;55.10;;;;;;5072365;28;19946;-71
2023/05/21 05:16:34;;;;;;;;;;;18.10;55.10;;;;;;5072164;28;19921;-71
2023/05/21 05:19:00;;;;;;;;;;;18.10;55.10;;;;;;5071974;28;20387;-71
2023/05/21 05:21:25;;;;;;;;;;;18.20;55.10;;;;;;5072986;28;19929;-71
2023/05/21 05:23:51;;;;;;;;;;;18.10;55.10;;;;;;5071776;28;19927;-71
2023/05/21 05:26:16;;;;;;;;;;;18.20;55.10;;;;;;5072361;28;19920;-72
2023/05/21 05:28:42;;;;;;;;;;;18.10;55.10;;;;;;5073015;28;19927;-71
2023/05/21 05:31:07;;;;;;;;;;;18.10;55.10;;;;;;5073067;28;20018;-72
2023/05/21 05:33:33;;;;;;;;;;;18.10;55.10;;;;;;5071646;28;19928;-71
2023/05/21 05:35:58;;;;;;;;;;;18.10;55.10;;;;;;5071521;28;19920;-69
2023/05/21 05:38:24;;;;;;;;;;;18.10;55.10;;;;;;5071662;28;19970;-71
2023/05/21 05:40:50;;;;;;;;;;;18.10;55.10;;;;;;5071448;28;19932;-71
2023/05/21 05:43:15;;;;;;;;;;;18.10;55.10;;;;;;5071542;28;19977;-71
2023/05/21 05:45:41;;;;;;;;;;;18.10;55.10;;;;;;5071372;28;20019;-71
2023/05/21 05:48:06;;;;;;;;;;;18.10;55.10;;;;;;5071456;28;19952;-71
2023/05/21 05:50:32;;;;;;;;;;;18.10;55.10;;;;;;5072677;28;19964;-71
2023/05/21 05:52:57;;;;;;;;;;;18.10;55.20;;;;;;5072729;28;19931;-71
2023/05/21 05:55:24;;;;;;;;;;;18.10;55.20;;;;;;5071958;28;19986;-71
2023/05/21 05:57:49;;;;;;;;;;;18.20;55.30;;;;;;5071152;28;19928;-71
2023/05/21 06:00:15;;;;;;;;;;;18.20;55.20;;;;;;5072669;28;20041;-72
2023/05/21 06:02:40;;;;;;;;;;;18.10;55.20;;;;;;5071530;28;19921;-71
2023/05/21 06:05:06;;;;;;;;;;;18.10;55.20;;;;;;5072617;28;19928;-71
2023/05/21 06:07:32;;;;;;;;;;;18.10;55.20;;;;;;5071129;28;19927;-71
2023/05/21 06:09:58;;;;;;;;;;;18.10;55.20;;;;;;5071166;28;20341;-71
2023/05/21 06:12:24;;;;;;;;;;;18.10;55.20;;;;;;5071079;28;19973;-71
2023/05/21 06:14:49;;;;;;;;;;;18.10;55.30;;;;;;5054376;28;19921;-71
2023/05/21 06:17:15;;;;;;;;;;;18.10;55.30;;;;;;5072511;28;19925;-71
2023/05/21 06:19:40;;;;;;;;;;;18.10;55.30;;;;;;5070705;28;19931;-71
2023/05/21 06:22:06;;;;;;;;;;;18.10;55.30;;;;;;5072317;28;19920;-71
2023/05/21 06:24:31;;;;;;;;;;;18.10;55.20;;;;;;5071041;28;19974;-71
2023/05/21 06:26:57;;;;;;;;;;;18.10;55.20;;;;;;5071273;28;19943;-71
2023/05/21 06:29:22;;;;;;;;;;;18.10;55.20;;;;;;5070895;28;19947;-71
2023/05/21 06:31:48;;;;;;;;;;;18.10;55.20;;;;;;5070957;28;19962;-72
2023/05/21 06:34:13;;;;;;;;;;;18.10;55.30;;;;;;5072120;28;20284;-71
2023/05/21 06:36:39;;;;;;;;;;;18.20;55.30;;;;;;5073251;28;19920;-71
2023/05/21 06:39:04;;;;;;;;;;;18.10;55.30;;;;;;5074994;28;20338;-71
2023/05/21 06:41:30;;;;;;;;;;;18.10;55.20;;;;;;5074886;28;19925;-71
2023/05/21 06:43:55;;;;;;;;;;;18.10;55.30;;;;;;5074777;28;19925;-71
2023/05/21 06:46:21;;;;;;;;;;;18.10;55.30;;;;;;5074893;28;20329;-71
2023/05/21 06:48:46;;;;;;;;;;;18.10;55.30;;;;;;5074687;28;19927;-71
2023/05/21 06:51:12;;;;;;;;;;;18.10;55.30;;;;;;5075115;28;19943;-69
2023/05/21 06:53:37;;;;;;;;;;;18.10;55.30;;;;;;5075953;28;19928;-71
2023/05/21 06:56:03;;;;;;;;;;;18.10;55.30;;;;;;5074937;28;19985;-71
2023/05/21 06:58:30;;;;;;;;;;;18.10;55.30;;;;;;5074489;28;20421;-71
2023/05/21 07:00:57;;;;;;;;;;;18.20;55.40;;;;;;5074465;28;19928;-71
2023/05/21 07:03:22;;;;;;;;;;;18.10;55.30;;;;;;5074759;28;19927;-71
2023/05/21 07:05:48;;;;;;;;;;;18.20;55.40;;;;;;5074760;28;19924;-71
2023/05/21 07:08:13;;;;;;;;;;;18.10;55.30;;;;;;5075693;28;20062;-71
2023/05/21 07:10:39;;;;;;;;;;;18.20;55.40;;;;;;5075589;28;19928;-71
2023/05/21 07:13:05;;;;;;;;;;;18.20;55.40;;;;;;5074372;28;19920;-71
2023/05/21 07:15:30;;;;;;;;;;;18.10;55.30;;;;;;5074102;28;19928;-71
2023/05/21 07:17:55;;;;;;;;;;;18.10;55.30;;;;;;5074596;28;19928;-71
2023/05/21 07:20:21;;;;;;;;;;;18.10;55.40;;;;;;5089772;28;20379;-69
2023/05/21 07:22:46;;;;;;;;;;;18.10;55.30;;;;;;5077520;28;20007;-71
2023/05/21 07:25:12;;;;;;;;;;;18.10;55.30;;;;;;5095562;28;19927;-71
2023/05/21 07:27:37;;;;;;;;;;;18.10;55.30;;;;;;5060790;28;19920;-71
2023/05/21 07:30:03;;;;;;;;;;;18.10;55.30;;;;;;5077279;28;20007;-71
2023/05/21 07:32:29;;;;;;;;;;;18.20;55.30;;;;;;5077592;28;19977;-69
2023/05/21 07:34:55;;;;;;;;;;;18.20;55.40;;;;;;5095562;28;20322;-71
2023/05/21 07:37:20;;;;;;;;;;;18.10;55.30;;;;;;5076456;28;19920;-72
2023/05/21 07:39:46;;;;;;;;;;;18.10;55.30;;;;;;5076905;28;19931;-71
2023/05/21 07:42:11;;;;;;;;;;;18.10;55.40;;;;;;5095414;28;19927;-71
2023/05/21 07:44:37;;;;;;;;;;;18.10;55.40;;;;;;5076955;28;19964;-71
2023/05/21 07:47:03;;;;;;;;;;;18.10;55.40;;;;;;5076815;28;20295;-71
2023/05/21 07:49:28;;;;;;;;;;;18.20;55.50;;;;;;5076791;28;19920;-71
2023/05/21 07:51:53;;;;;;;;;;;18.10;55.60;;;;;;5095047;28;20460;-70
2023/05/21 07:54:19;;;;;;;;;;;18.10;55.40;;;;;;5095220;28;19920;-71
2023/05/21 07:56:44;;;;;;;;;;;18.10;55.40;;;;;;5077037;28;20021;-71
2023/05/21 07:59:10;;;;;;;;;;;18.10;55.50;;;;;;5076179;28;19927;-71
2023/05/21 08:01:36;;;;;;;;;;;18.20;56.20;;;;;;5076405;28;19932;-71
2023/05/21 08:04:05;;;;;;;;;;;18.10;55.30;;;;;;5077096;28;19927;-69
2023/05/21 08:06:32;;;;;;;;;;;18.10;55.30;;;;;;5075958;28;19965;-71
2023/05/21 08:09:00;;;;;;;;;;;18.10;55.40;;;;;;5076065;28;20010;-71
2023/05/21 08:11:26;;;;;;;;;;;18.20;55.50;;;;;;5094609;28;20387;-71
2023/05/21 08:13:52;;;;;;;;;;;18.10;55.30;;;;;;5076962;28;19956;-71
2023/05/21 08:16:17;;;;;;;;;;;18.10;55.30;;;;;;5076773;28;19920;-71
2023/05/21 08:18:43;;;;;;;;;;;18.10;55.40;;;;;;5094312;28;19920;-71
2023/05/21 08:21:08;;;;;;;;;;;18.10;55.50;;;;;;5076331;28;19978;-71
2023/05/21 08:23:34;;;;;;;;;;;18.20;55.60;;;;;;5094710;28;20356;-69
2023/05/21 08:26:00;;;;;;;;;;;18.20;55.70;;;;;;5076560;28;19965;-71
2023/05/21 08:28:27;;;;;;;;;;;18.10;55.70;;;;;;5094440;28;19931;-71
2023/05/21 08:30:53;;;;;;;;;;;18.10;55.60;;;;;;5076572;28;19965;-71
2023/05/21 08:33:19;;;;;;;;;;;18.10;55.50;;;;;;5076114;28;19920;-71
2023/05/21 08:35:44;;;;;;;;;;;18.20;55.60;;;;;;5076158;28;19927;-69
2023/05/21 08:38:10;;;;;;;;;;;18.10;55.50;;;;;;5076022;28;20003;-71
2023/05/21 08:40:35;;;;;;;;;;;18.20;55.50;;;;;;5076127;28;19931;-71
2023/05/21 08:43:01;;;;;;;;;;;18.10;55.40;;;;;;5076000;28;19962;-71
2023/05/21 08:45:30;;;;;;;;;;;18.10;55.30;;;;;;5075898;28;19927;-71
2023/05/21 08:47:56;;;;;;;;;;;18.10;55.30;;;;;;5093929;28;19924;-71
2023/05/21 08:50:23;;;;;;;;;;;18.20;55.30;;;;;;5075929;28;19920;-68
2023/05/21 08:52:49;;;;;;;;;;;18.10;55.30;;;;;;5076053;28;20390;-71
2023/05/21 08:55:15;;;;;;;;;;;18.20;55.40;;;;;;5076136;28;20006;-71
2023/05/21 08:57:42;;;;;;;;;;;18.20;55.40;;;;;;5093789;28;20053;-71
2023/05/21 09:00:08;;;;;;;;;;;18.30;55.50;;;;;;5074561;28;19931;-71
2023/05/21 09:02:35;;;;;;;;;;;18.10;55.40;;;;;;5075892;28;19920;-71
2023/05/21 09:05:02;;;;;;;;;;;18.20;55.60;;;;;;5075920;28;20397;-71
2023/05/21 09:07:28;;;;;;;;;;;18.20;55.50;;;;;;5075415;28;19920;-71
2023/05/21 09:09:56;;;;;;;;;;;18.10;55.50;;;;;;5093785;28;19927;-71
2023/05/21 09:12:22;;;;;;;;;;;18.20;55.60;;;;;;5093688;28;19920;-71
2023/05/21 09:14:48;;;;;;;;;;;18.20;55.70;;;;;;5075191;28;19920;-71
2023/05/21 09:17:14;;;;;;;;;;;18.20;55.70;;;;;;5075320;28;19927;-71
2023/05/21 09:19:59;;;;;;;;;;;18.20;55.70;;;;;;5093176;28;19930;-71
2023/05/21 09:22:24;;;;;;;;;;;18.20;55.80;;;;;;5075032;28;19924;-69
2023/05/21 09:24:50;;;;;;;;;;;18.20;55.80;;;;;;5093291;28;19943;-72
2023/05/21 09:27:16;;;;;;;;;;;18.20;55.70;;;;;;5075184;28;19949;-71
2023/05/21 09:29:42;;;;;;;;;;;18.20;55.70;;;;;;5093187;28;19920;-71
2023/05/21 09:32:08;;;;;;;;;;;18.20;55.80;;;;;;5075478;28;20378;-71
2023/05/21 09:34:34;;;;;;;;;;;18.20;55.80;;;;;;5074973;28;19962;-71
2023/05/21 09:37:01;;;;;;;;;;;18.20;55.80;;;;;;5075206;28;19920;-71
2023/05/21 09:39:28;;;;;;;;;;;18.20;55.80;;;;;;5074720;28;19924;-71
2023/05/21 09:41:55;;;;;;;;;;;18.20;55.80;;;;;;5075226;28;20015;-71
2023/05/21 09:44:21;;;;;;;;;;;18.20;55.90;;;;;;5074869;28;19920;-71
2023/05/21 09:46:46;;;;;;;;;;;18.20;56.00;;;;;;5075036;28;19984;-71
2023/05/21 09:49:21;;;;;;;;;;;18.20;55.90;;;;;;5093031;28;19920;-71
2023/05/21 09:51:47;;;;;;;;;;;18.20;55.90;;;;;;5074722;28;19926;-71
2023/05/21 09:54:12;;;;;;;;;;;18.20;55.90;;;;;;5092870;28;19920;-71
2023/05/21 09:56:38;;;;;;;;;;;18.30;55.90;;;;;;5074699;28;19920;-71
2023/05/21 09:59:03;;;;;;;;;;;18.20;55.80;;;;;;5075109;28;20387;-71
2023/05/21 10:01:29;;;;;;;;;;;18.20;55.90;;;;;;5074504;28;19920;-71
2023/05/21 10:03:56;;;;;;;;;;;18.30;55.90;;;;;;5074830;28;19932;-71
2023/05/21 10:06:23;;;;;;;;;;;18.30;55.90;;;;;;5092647;28;19965;-71
2023/05/21 10:08:51;;;;;;;;;;;18.30;55.90;;;;;;5074846;28;19932;-71
2023/05/21 10:11:17;;;;;;;;;;;18.30;55.80;;;;;;5074383;28;20364;-71
2023/05/21 10:13:46;;;;;;;;;;;18.30;55.90;;;;;;5092646;28;19942;-71
2023/05/21 10:16:12;;;;;;;;;;;18.30;56.00;;;;;;5074604;28;19920;-71
2023/05/21 10:18:38;;;;;;;;;;;18.30;55.90;;;;;;5074337;28;19927;-69
2023/05/21 10:21:03;;;;;;;;;;;18.30;55.90;;;;;;5074139;28;19924;-71
2023/05/21 10:23:31;;;;;;;;;;;18.30;55.80;;;;;;5057557;28;22212;-71
2023/05/21 10:25:57;;;;;;;;;;;18.30;55.90;;;;;;5074509;28;19924;-71
2023/05/21 10:28:22;;;;;;;;;;;18.30;55.90;;;;;;5074512;28;19920;-71
2023/05/21 10:30:48;;;;;;;;;;;18.30;56.00;;;;;;5074470;28;19931;-72
2023/05/21 10:33:15;;;;;;;;;;;18.30;56.10;;;;;;5074577;28;20093;-72
2023/05/21 10:35:41;;;;;;;;;;;18.30;56.00;;;;;;5074450;28;19927;-71
2023/05/21 10:38:07;;;;;;;;;;;18.30;56.00;;;;;;5073448;28;19920;-71
2023/05/21 10:40:34;;;;;;;;;;;18.30;56.00;;;;;;5091975;28;20296;-71
2023/05/21 10:43:07;;;;;;;;;;;18.30;56.00;;;;;;5092255;28;20371;-69
2023/05/21 10:48:33;;;;;;;;;;;18.30;56.00;;;;;;5110370;27;19912;-71
2023/05/21 10:53:59;;;;;;;;;;;18.30;56.10;;;;;;5151562;27;19912;-71
2023/05/21 10:59:40;;;;;;;;;;;18.40;56.20;;;;;;5110340;27;19938;-71
2023/05/21 11:02:06;;;;;;;;;;;18.40;56.20;;;;;;5108767;28;20009;-71
2023/05/21 11:04:33;;;;;;;;;;;18.30;56.20;;;;;;5108747;28;19928;-71
2023/05/21 11:06:59;;;;;;;;;;;18.40;56.30;;;;;;5108720;28;19920;-71
2023/05/21 11:09:25;;;;;;;;;;;18.30;56.20;;;;;;5109095;28;19989;-71
2023/05/21 11:11:51;;;;;;;;;;;18.30;56.20;;;;;;5108703;28;19952;-72
2023/05/21 11:14:25;;;;;;;;;;;18.40;56.30;;;;;;5108766;28;19928;-71
2023/05/21 11:16:50;;;;;;;;;;;18.40;56.40;;;;;;5105088;28;20137;-71
2023/05/21 11:19:16;;;;;;;;;;;18.40;56.40;;;;;;5089874;28;20545;-71
2023/05/21 11:21:42;;;;;;;;;;;18.40;57.20;;;;;;5105520;28;19921;-71
2023/05/21 11:24:09;;;;;;;;;;;18.40;56.50;;;;;;5105213;28;19921;-71
2023/05/21 11:29:32;;;;;;;;;;;18.40;56.70;;;;;;5110317;27;20283;-72
2023/05/21 11:32:00;;;;;;;;;;;18.40;56.60;;;;;;5108797;28;19923;-71
2023/05/21 11:34:28;;;;;;;;;;;18.40;56.80;;;;;;5109404;28;20267;-72
2023/05/21 11:37:14;;;;;;;;;;;18.40;56.80;;;;;;5110143;28;20282;-72
2023/05/21 11:39:39;;;;;;;;;;;18.40;56.60;;;;;;5108686;28;19920;-72
2023/05/21 11:42:05;;;;;;;;;;;18.40;56.70;;;;;;5108991;28;19926;-72
2023/05/21 11:44:38;;;;;;;;;;;18.40;56.90;;;;;;5108614;28;20374;-71
2023/05/21 11:47:05;;;;;;;;;;;18.40;56.80;;;;;;5108877;28;20288;-71
2023/05/21 11:49:30;;;;;;;;;;;18.40;56.90;;;;;;5108911;28;19920;-71
2023/05/21 11:51:56;;;;;;;;;;;18.40;56.80;;;;;;5108583;28;19927;-71
2023/05/21 11:54:22;;;;;;;;;;;18.40;56.90;;;;;;5109853;28;19924;-71
2023/05/21 11:56:48;;;;;;;;;;;18.40;56.90;;;;;;5109752;28;19920;-71
2023/05/21 11:59:15;;;;;;;;;;;18.40;57.00;;;;;;5108374;28;19927;-71
2023/05/21 12:01:41;;;;;;;;;;;18.40;56.90;;;;;;5108758;28;19970;-72
2023/05/21 12:04:06;;;;;;;;;;;18.40;56.90;;;;;;5107889;28;19952;-72
2023/05/21 12:06:33;;;;;;;;;;;18.40;57.00;;;;;;5108139;28;20024;-72
2023/05/21 12:08:58;;;;;;;;;;;18.40;57.10;;;;;;5108171;28;19924;-72
2023/05/21 12:11:25;;;;;;;;;;;18.50;57.10;;;;;;5108533;28;19920;-71
2023/05/21 12:13:51;;;;;;;;;;;18.50;57.00;;;;;;5107237;28;19920;-72
2023/05/21 12:16:16;;;;;;;;;;;18.50;57.00;;;;;;5108227;28;19927;-71
2023/05/21 12:18:42;;;;;;;;;;;18.50;57.20;;;;;;5108051;28;20333;-72
2023/05/21 12:21:07;;;;;;;;;;;18.50;57.10;;;;;;5109306;28;20219;-72
2023/05/21 12:23:33;;;;;;;;;;;18.50;57.10;;;;;;5108012;28;20379;-71
2023/05/21 12:25:58;;;;;;;;;;;18.50;57.10;;;;;;5107865;28;19959;-72
2023/05/21 12:28:24;;;;;;;;;;;18.50;57.10;;;;;;5107510;28;19924;-72
2023/05/21 12:30:49;;;;;;;;;;;18.50;57.20;;;;;;5108300;28;19920;-72
2023/05/21 12:33:16;;;;;;;;;;;18.50;57.20;;;;;;5107725;28;20337;-72
2023/05/21 12:35:47;;;;;;;;;;;18.50;57.20;;;;;;5107706;28;19931;-72
2023/05/21 12:38:13;;;;;;;;;;;18.50;57.20;;;;;;5107699;28;19920;-72
2023/05/21 12:40:39;;;;;;;;;;;18.50;57.20;;;;;;5095389;28;20011;-72
2023/05/21 12:43:05;;;;;;;;;;;18.50;57.20;;;;;;5095311;28;19935;-71
2023/05/21 12:45:31;;;;;;;;;;;18.50;57.20;;;;;;5093931;28;19927;-71
2023/05/21 12:47:59;;;;;;;;;;;18.50;57.30;;;;;;5095416;28;20291;-71
2023/05/21 12:50:25;;;;;;;;;;;18.50;57.30;;;;;;5095197;28;19920;-71
2023/05/21 12:52:53;;;;;;;;;;;18.50;57.30;;;;;;5095246;28;20299;-71
2023/05/21 12:55:20;;;;;;;;;;;18.50;57.30;;;;;;5095032;28;20007;-71
2023/05/21 12:57:46;;;;;;;;;;;18.60;57.30;;;;;;5093665;28;20371;-71
2023/05/21 13:00:13;;;;;;;;;;;18.50;57.30;;;;;;5093711;28;20010;-72
2023/05/21 13:02:40;;;;;;;;;;;18.50;57.30;;;;;;5095371;28;19959;-71
2023/05/21 13:05:07;;;;;;;;;;;18.50;57.30;;;;;;5093601;28;20379;-72
2023/05/21 13:07:33;;;;;;;;;;;18.60;57.30;;;;;;5093515;28;19928;-71
2023/05/21 13:09:59;;;;;;;;;;;18.60;57.30;;;;;;5094801;28;19920;-72
2023/05/21 13:12:26;;;;;;;;;;;18.60;57.30;;;;;;5093649;28;19920;-71
2023/05/21 13:14:52;;;;;;;;;;;18.60;57.30;;;;;;5093742;28;20061;-72
2023/05/21 13:17:18;;;;;;;;;;;18.60;57.30;;;;;;5093634;28;19927;-72
2023/05/21 13:20:05;;;;;;;;;;;18.60;57.40;;;;;;5093421;28;19920;-72
2023/05/21 13:22:30;;;;;;;;;;;18.60;57.40;;;;;;5076582;28;19928;-72
2023/05/21 13:24:56;;;;;;;;;;;18.60;57.40;;;;;;5093208;28;20014;-72
2023/05/21 13:27:21;;;;;;;;;;;18.70;57.50;;;;;;5096809;28;19931;-72
2023/05/21 13:29:47;;;;;;;;;;;18.70;57.50;;;;;;5096539;28;19920;-69
2023/05/21 13:32:12;;;;;;;;;;;18.60;57.40;;;;;;5096468;28;19920;-71
2023/05/21 13:34:38;;;;;;;;;;;18.60;57.40;;;;;;5096722;28;20069;-72
2023/05/21 13:37:03;;;;;;;;;;;18.70;57.50;;;;;;5096581;28;20431;-72
2023/05/21 13:39:29;;;;;;;;;;;18.70;57.50;;;;;;5114646;28;19927;-72
2023/05/21 13:41:54;;;;;;;;;;;18.70;57.50;;;;;;5096242;28;19927;-72
2023/05/21 13:44:20;;;;;;;;;;;18.70;57.50;;;;;;5096104;28;19926;-72
2023/05/21 13:46:45;;;;;;;;;;;18.70;57.50;;;;;;5096413;28;19920;-72
2023/05/21 13:49:11;;;;;;;;;;;18.70;57.50;;;;;;5096105;28;20379;-72
2023/05/21 13:51:36;;;;;;;;;;;18.70;57.50;;;;;;5095379;28;19927;-73
2023/05/21 13:54:02;;;;;;;;;;;18.70;57.50;;;;;;5095907;28;19963;-71
2023/05/21 13:56:27;;;;;;;;;;;18.70;57.50;;;;;;5114236;28;19942;-71
2023/05/21 13:58:53;;;;;;;;;;;18.70;57.60;;;;;;5096188;28;19942;-72
2023/05/21 14:01:18;;;;;;;;;;;18.70;57.70;;;;;;5114364;28;20409;-72
2023/05/21 14:03:44;;;;;;;;;;;18.70;57.70;;;;;;5114066;28;20014;-72
2023/05/21 14:06:10;;;;;;;;;;;18.70;57.80;;;;;;5114172;28;19973;-72
2023/05/21 14:08:35;;;;;;;;;;;18.70;57.80;;;;;;5095732;28;19924;-72
2023/05/21 14:11:01;;;;;;;;;;;18.80;57.90;;;;;;5113928;28;19919;-72
2023/05/21 14:13:26;;;;;;;;;;;18.70;57.80;;;;;;5095571;28;19920;-72
2023/05/21 14:15:52;;;;;;;;;;;18.70;57.90;;;;;;5095857;28;19974;-72
2023/05/21 14:18:17;;;;;;;;;;;18.70;57.90;;;;;;5095808;28;20056;-72
2023/05/21 14:20:43;;;;;;;;;;;18.70;58.00;;;;;;5113834;28;20476;-72
2023/05/21 14:23:10;;;;;;;;;;;18.80;58.10;;;;;;5095434;28;19923;-72